Time;durP1;ratioP1;P1;durP2;ratioP2;P2;SDS_P1;SDS_P2;PMS_P1;PMS_P2;Temp;Humidity;BMP_temperature;BMP_pressure;BME280_temperature;BME280_humidity;BME280_pressure;Samples;Min_cycle;Max_cycle;Signal;HPM_P1;HPM_P2
2023/05/14 00:00:36;;;;;;;;;;;17.00;32.70;;;16.15;30.99;101685.38;12251569;19;19923;-86
2023/05/14 00:04:37;;;;;;;;;;;16.90;33.00;;;16.02;31.26;101679.19;12255922;19;19929;-86
2023/05/14 00:08:39;;;;;;;;;;;16.90;32.90;;;15.92;31.07;101679.75;12254407;19;19995;-87
2023/05/14 00:12:40;;;;;;;;;;;16.90;32.70;;;15.95;31.13;101693.69;12250070;19;20342;-86
2023/05/14 00:16:42;;;;;;;;;;;16.80;32.70;;;15.51;31.37;101631.41;12252520;19;19911;-86
2023/05/14 00:20:43;;;;;;;;;;;16.70;32.70;;;15.72;31.30;101667.00;12250501;19;19915;-87
2023/05/14 00:24:45;;;;;;;;;;;16.70;32.70;;;15.49;31.30;101645.50;12251356;19;19927;-86
2023/05/14 00:28:46;;;;;;;;;;;16.60;32.70;;;15.57;31.43;101668.72;12250065;19;19925;-86
2023/05/14 00:32:48;;;;;;;;;;;16.50;32.70;;;15.57;31.47;101670.53;12249160;19;19926;-86
2023/05/14 00:36:50;;;;;;;;;;;16.50;32.80;;;15.55;31.57;101673.22;12253391;19;19946;-86
2023/05/14 00:40:51;;;;;;;;;;;16.40;32.90;;;15.29;31.46;101637.97;12249656;19;19915;-86
2023/05/14 00:44:53;;;;;;;;;;;16.40;33.00;;;15.47;31.63;101676.34;12251338;19;19921;-86
2023/05/14 00:48:56;;;;;;;;;;;16.30;33.00;;;15.47;31.56;101672.84;12247569;19;20337;-86
2023/05/14 00:52:57;;;;;;;;;;;16.20;32.90;;;15.41;31.73;101674.06;12250799;19;19919;-86
2023/05/14 00:56:59;;;;;;;;;;;16.30;33.00;;;15.34;31.64;101669.25;12249048;19;19929;-86
2023/05/14 01:01:01;;;;;;;;;;;16.20;33.10;;;15.05;31.70;101621.88;12248644;19;19923;-87
2023/05/14 01:05:02;;;;;;;;;;;16.20;33.10;;;15.25;31.78;101652.25;12251031;19;19923;-86
2023/05/14 01:09:28;;;;;;;;;;;16.20;33.10;;;15.18;31.90;101653.56;12247904;19;19910;-85
2023/05/14 01:13:46;;;;;;;;;;;16.20;33.00;;;15.08;31.87;101644.53;12250865;19;19915;-86
2023/05/14 01:17:58;;;;;;;;;;;16.10;33.10;;;15.06;31.97;101660.38;12250560;19;19917;-86
2023/05/14 01:21:59;;;;;;;;;;;16.00;33.20;;;14.92;31.98;101649.84;12247988;19;19923;-87
2023/05/14 01:26:01;;;;;;;;;;;15.90;33.10;;;14.88;32.02;101661.47;12249942;19;19919;-86
2023/05/14 01:30:36;;;;;;;;;;;15.80;33.00;;;14.80;31.96;101665.41;12243678;19;19936;-86
2023/05/14 01:34:39;;;;;;;;;;;15.70;33.10;;;14.72;32.09;101653.66;12246588;19;19927;-86
2023/05/14 01:38:44;;;;;;;;;;;15.60;33.30;;;14.63;32.06;101646.28;12247838;19;19935;-86
2023/05/14 01:42:46;;;;;;;;;;;15.60;33.30;;;14.56;32.20;101644.00;12244685;19;19919;-86
2023/05/14 01:46:48;;;;;;;;;;;15.50;33.50;;;14.44;32.24;101620.16;12248393;19;19931;-86
2023/05/14 01:50:50;;;;;;;;;;;15.40;33.50;;;14.38;32.32;101618.72;12246034;19;19946;-86
2023/05/14 01:54:51;;;;;;;;;;;15.40;33.70;;;14.44;32.14;101641.19;12248190;19;20285;-86
2023/05/14 01:58:55;;;;;;;;;;;15.30;33.60;;;14.37;32.44;101632.81;12246701;19;20298;-86
2023/05/14 02:02:57;;;;;;;;;;;15.30;33.60;;;14.29;32.36;101625.38;12247843;19;20317;-86
2023/05/14 02:06:59;;;;;;;;;;;15.30;33.60;;;14.23;32.45;101606.44;12248148;19;19950;-86
2023/05/14 02:11:01;;;;;;;;;;;15.30;33.70;;;14.26;32.53;101614.19;12245793;19;19911;-86
2023/05/14 02:15:03;;;;;;;;;;;15.30;33.70;;;14.43;32.56;101635.09;12248665;19;19927;-86
2023/05/14 02:19:05;;;;;;;;;;;15.30;33.70;;;14.30;32.65;101620.94;12248372;19;20614;-86
2023/05/14 02:23:07;;;;;;;;;;;15.30;33.80;;;14.29;32.67;101614.84;12260322;19;19938;-87
2023/05/14 02:27:12;;;;;;;;;;;15.30;33.70;;;14.45;32.70;101633.22;12253969;19;20168;-86
2023/05/14 02:31:13;;;;;;;;;;;15.30;33.80;;;14.29;32.79;101606.13;12256252;19;19923;-86
2023/05/14 02:35:16;;;;;;;;;;;15.40;33.90;;;14.47;32.89;101633.97;12261500;19;19929;-86
2023/05/14 02:39:18;;;;;;;;;;;15.40;33.90;;;14.52;32.75;101631.09;12258431;19;19915;-86
2023/05/14 02:43:20;;;;;;;;;;;15.40;33.90;;;14.49;32.89;101626.84;12259022;19;19947;-86
2023/05/14 02:47:21;;;;;;;;;;;15.50;33.90;;;14.38;32.84;101602.97;12259112;19;19910;-86
2023/05/14 02:51:23;;;;;;;;;;;15.50;34.10;;;14.46;32.87;101624.41;12253037;19;19906;-86
2023/05/14 02:55:25;;;;;;;;;;;15.50;34.30;;;14.49;32.93;101631.25;12256265;19;19919;-86
2023/05/14 02:59:27;;;;;;;;;;;15.50;34.10;;;14.22;32.96;101589.84;12257538;19;19982;-86
2023/05/14 03:03:29;;;;;;;;;;;15.40;34.10;;;14.30;33.03;101598.13;12257504;19;20319;-85
2023/05/14 03:07:31;;;;;;;;;;;15.40;34.00;;;14.41;33.19;101625.59;12259419;19;19923;-86
2023/05/14 03:11:32;;;;;;;;;;;15.40;34.00;;;14.34;33.18;101617.22;12252477;19;19925;-86
2023/05/14 03:15:34;;;;;;;;;;;15.40;34.30;;;14.14;33.30;101590.28;12255726;19;19939;-86
2023/05/14 03:19:35;;;;;;;;;;;15.30;34.10;;;14.32;33.23;101621.72;12257120;19;19925;-86
2023/05/14 03:23:37;;;;;;;;;;;15.40;34.20;;;14.23;33.24;101609.06;12259113;19;19947;-86
2023/05/14 03:27:39;;;;;;;;;;;15.40;34.30;;;14.35;33.32;101632.06;12256298;19;20271;-85
2023/05/14 03:31:40;;;;;;;;;;;15.40;34.30;;;14.26;33.29;101614.19;12248248;19;19919;-86
2023/05/14 03:35:42;;;;;;;;;;;15.30;34.20;;;14.34;33.49;101636.47;12257572;19;19956;-86
2023/05/14 03:39:43;;;;;;;;;;;15.30;34.20;;;14.26;33.56;101608.94;12254910;19;19926;-87
2023/05/14 03:43:45;;;;;;;;;;;15.30;34.20;;;14.28;33.25;101607.88;12254231;19;19910;-86
2023/05/14 03:47:46;;;;;;;;;;;15.30;34.30;;;14.11;33.50;101582.56;12253799;19;19935;-86
2023/05/14 03:51:48;;;;;;;;;;;15.40;34.30;;;14.28;33.52;101613.13;12249191;19;20285;-87
2023/05/14 03:55:50;;;;;;;;;;;15.40;34.30;;;14.22;33.63;101602.97;12254441;19;19922;-86
2023/05/14 03:59:52;;;;;;;;;;;15.40;34.30;;;14.22;33.58;101602.97;12254976;19;19914;-86
2023/05/14 04:03:54;;;;;;;;;;;15.40;34.30;;;14.33;33.69;101621.59;12254719;19;19923;-87
2023/05/14 04:07:57;;;;;;;;;;;15.40;34.30;;;14.24;33.71;101600.28;12254555;19;19918;-86
2023/05/14 04:11:58;;;;;;;;;;;15.40;34.40;;;13.99;33.81;101564.03;12250398;19;19925;-86
2023/05/14 04:16:00;;;;;;;;;;;15.40;34.40;;;14.23;33.70;101598.56;12253688;19;19919;-86
2023/05/14 04:20:02;;;;;;;;;;;15.40;34.30;;;14.04;33.68;101578.63;12252288;19;19915;-86
2023/05/14 04:24:04;;;;;;;;;;;15.30;34.40;;;14.25;33.70;101617.72;12251502;19;20315;-86
2023/05/14 04:28:05;;;;;;;;;;;15.30;34.30;;;14.20;33.86;101617.97;12253186;19;19907;-85
2023/05/14 04:32:08;;;;;;;;;;;15.30;34.70;;;14.04;33.78;101588.25;12246543;19;19922;-86
2023/05/14 04:36:09;;;;;;;;;;;15.20;34.60;;;13.83;33.89;101570.16;12255290;19;19918;-87
2023/05/14 04:40:11;;;;;;;;;;;15.20;34.70;;;14.00;33.96;101592.00;12252315;19;19911;-86
2023/05/14 04:44:13;;;;;;;;;;;15.10;34.60;;;13.94;34.05;101587.94;12253181;19;19949;-86
2023/05/14 04:48:14;;;;;;;;;;;15.10;34.70;;;14.00;34.07;101594.63;12255325;19;19925;-87
2023/05/14 04:52:16;;;;;;;;;;;15.10;34.80;;;13.89;34.03;101574.22;12250945;19;19986;-87
2023/05/14 04:56:17;;;;;;;;;;;15.10;34.80;;;14.00;34.05;101598.09;12254030;19;19911;-86
2023/05/14 05:00:20;;;;;;;;;;;15.10;34.90;;;13.86;34.18;101582.25;12250802;19;19927;-87
2023/05/14 05:04:22;;;;;;;;;;;15.00;34.90;;;13.78;34.11;101566.09;12252904;19;19922;-87
2023/05/14 05:08:25;;;;;;;;;;;15.00;34.90;;;13.94;34.20;101593.19;12253158;19;19923;-86
2023/05/14 05:12:28;;;;;;;;;;;15.00;34.90;;;13.96;34.23;101596.59;12250455;19;19970;-87
2023/05/14 05:16:30;;;;;;;;;;;15.00;35.10;;;13.99;34.46;101591.16;12251570;19;19918;-86
2023/05/14 05:20:32;;;;;;;;;;;15.10;35.20;;;13.78;34.44;101551.19;12251487;19;19911;-87
2023/05/14 05:24:34;;;;;;;;;;;15.10;35.30;;;14.19;34.47;101597.91;12254011;19;19947;-86
2023/05/14 05:28:35;;;;;;;;;;;15.20;35.50;;;14.26;34.50;101601.06;12252216;19;19918;-86
2023/05/14 05:32:37;;;;;;;;;;;15.30;35.60;;;14.12;34.54;101560.66;12248754;19;19986;-87
2023/05/14 05:36:38;;;;;;;;;;;15.40;35.80;;;14.23;34.61;101567.91;12251968;19;19914;-87
2023/05/14 05:40:40;;;;;;;;;;;15.50;35.80;;;14.24;34.73;101539.88;12248912;19;19930;-87
2023/05/14 05:44:41;;;;;;;;;;;15.60;35.90;;;14.61;34.74;101593.81;12252761;19;19928;-87
2023/05/14 05:48:43;;;;;;;;;;;15.70;36.10;;;14.71;34.84;101588.84;12252886;19;19923;-87
2023/05/14 05:52:44;;;;;;;;;;;15.80;36.70;;;14.54;34.90;101532.00;12250437;19;19915;-87
2023/05/14 05:56:46;;;;;;;;;;;15.90;36.80;;;14.99;34.93;101581.00;12249701;19;19922;-87
2023/05/14 06:00:48;;;;;;;;;;;16.10;36.50;;;14.99;35.07;101557.34;12250375;19;19915;-86
2023/05/14 06:04:49;;;;;;;;;;;16.20;36.30;;;15.22;34.91;101579.59;12245986;19;19943;-86
2023/05/14 06:08:51;;;;;;;;;;;16.40;36.20;;;15.38;34.90;101576.88;12248589;19;19998;-87
2023/05/14 06:12:53;;;;;;;;;;;16.50;36.40;;;15.40;35.09;101577.63;12248480;19;20353;-86
2023/05/14 06:16:54;;;;;;;;;;;16.70;36.00;;;15.54;34.97;101573.31;12248460;19;19933;-86
2023/05/14 06:20:58;;;;;;;;;;;16.80;36.00;;;15.67;35.17;101574.22;12245373;19;20329;-85
2023/05/14 06:25:00;;;;;;;;;;;16.90;35.70;;;15.82;35.13;101577.69;12248903;19;19926;-86
2023/05/14 06:29:02;;;;;;;;;;;17.10;35.70;;;15.96;35.13;101584.72;12247987;19;19982;-86
2023/05/14 06:33:03;;;;;;;;;;;17.20;35.70;;;16.00;35.17;101578.31;12252731;19;20644;-86
2023/05/14 06:37:05;;;;;;;;;;;17.30;35.90;;;16.11;35.23;101573.19;12250543;19;19943;-86
2023/05/14 06:41:07;;;;;;;;;;;17.40;35.50;;;16.25;35.30;101580.19;12248069;19;19922;-84
2023/05/14 06:45:09;;;;;;;;;;;17.50;35.90;;;16.31;35.14;101570.13;12251077;19;19919;-86
2023/05/14 06:49:11;;;;;;;;;;;17.70;35.40;;;16.47;35.10;101580.50;12247146;19;19919;-86
2023/05/14 06:53:12;;;;;;;;;;;17.80;35.60;;;16.63;35.18;101590.84;12247853;19;19919;-86
2023/05/14 06:57:14;;;;;;;;;;;17.90;35.50;;;16.68;35.45;101578.19;12250006;19;19921;-86
2023/05/14 07:01:16;;;;;;;;;;;18.00;35.30;;;16.83;35.21;101578.16;12244425;19;19940;-88
2023/05/14 07:05:18;;;;;;;;;;;18.10;35.90;;;16.77;35.29;101535.41;12251990;19;19943;-86
2023/05/14 07:09:20;;;;;;;;;;;18.20;35.60;;;17.01;35.19;101556.63;12258514;19;19923;-87
2023/05/14 07:13:22;;;;;;;;;;;18.40;35.40;;;17.25;35.16;101580.50;12261174;19;19915;-86
2023/05/14 07:17:24;;;;;;;;;;;18.50;35.50;;;17.27;35.16;101543.41;12260730;19;19911;-87
2023/05/14 07:21:26;;;;;;;;;;;18.60;35.40;;;17.52;35.33;101562.78;12256970;19;19935;-87
2023/05/14 07:25:28;;;;;;;;;;;18.80;35.60;;;17.46;35.18;101524.47;12262510;19;19939;-87
2023/05/14 07:29:30;;;;;;;;;;;18.90;35.40;;;17.82;35.33;101555.34;12261570;19;20001;-87
2023/05/14 07:33:31;;;;;;;;;;;19.10;36.00;;;17.98;35.13;101552.41;12260854;19;20613;-88
2023/05/14 07:37:33;;;;;;;;;;;19.20;35.60;;;18.01;35.20;101531.06;12263678;19;19914;-88
2023/05/14 07:41:35;;;;;;;;;;;19.40;35.40;;;18.22;35.12;101533.91;12256514;19;19925;-88
2023/05/14 07:45:37;;;;;;;;;;;19.50;35.30;;;18.37;35.35;101533.72;12262281;19;19911;-87
2023/05/14 07:49:39;;;;;;;;;;;19.70;35.70;;;18.56;35.06;101531.38;12257294;19;19935;-88
2023/05/14 07:53:41;;;;;;;;;;;19.80;35.30;;;18.69;35.35;101521.53;12259625;19;20288;-87
2023/05/14 07:57:43;;;;;;;;;;;20.00;35.50;;;18.79;35.24;101521.69;12257139;19;20340;-88
2023/05/14 08:01:44;;;;;;;;;;;20.10;35.10;;;18.95;35.22;101518.69;12259538;19;19927;-87
2023/05/14 08:05:46;;;;;;;;;;;20.20;35.30;;;19.19;35.15;101526.53;12260388;19;20420;-87
2023/05/14 08:09:48;;;;;;;;;;;20.40;35.10;;;19.29;34.99;101511.59;12261636;19;19911;-87
2023/05/14 08:13:49;;;;;;;;;;;20.60;34.80;;;19.42;35.09;101512.31;12261498;19;20321;-86
2023/05/14 08:17:51;;;;;;;;;;;20.70;34.80;;;19.65;35.20;101517.56;12260003;19;19944;-87
2023/05/14 08:21:53;;;;;;;;;;;20.90;34.50;;;19.72;35.14;101489.63;12257181;19;19947;-86
2023/05/14 08:25:55;;;;;;;;;;;21.10;34.50;;;20.02;35.23;101502.16;12255853;19;20396;-85
2023/05/14 08:29:56;;;;;;;;;;;21.30;34.50;;;20.16;34.72;101479.78;12246951;19;19925;-86
2023/05/14 08:33:58;;;;;;;;;;;21.50;34.40;;;20.45;35.07;101495.09;12250012;19;19974;-87
2023/05/14 08:38:00;;;;;;;;;;;21.70;34.20;;;20.53;34.60;101469.59;12251421;19;19919;-85
2023/05/14 08:42:05;;;;;;;;;;;21.90;34.10;;;20.79;34.80;101471.81;12248502;19;19939;-85
2023/05/14 08:46:09;;;;;;;;;;;22.10;33.80;;;21.08;34.90;101487.03;12249857;19;19919;-85
2023/05/14 08:50:10;;;;;;;;;;;22.30;33.70;;;21.10;34.65;101454.06;12247514;19;19918;-86
2023/05/14 08:54:15;;;;;;;;;;;22.50;33.20;;;21.41;34.50;101465.50;12250411;19;19919;-86
2023/05/14 08:58:17;;;;;;;;;;;22.70;33.20;;;21.60;34.65;101462.03;12248591;19;19935;-86
2023/05/14 09:02:23;;;;;;;;;;;22.90;33.50;;;21.84;34.39;101463.41;12246373;19;19911;-86
2023/05/14 09:06:24;;;;;;;;;;;23.10;32.10;;;21.93;33.99;101446.63;12248809;19;19990;-87
2023/05/14 09:10:26;;;;;;;;;;;23.30;32.70;;;22.11;34.05;101446.72;12248186;19;19979;-85
2023/05/14 09:14:28;;;;;;;;;;;23.40;32.60;;;22.32;34.38;101449.25;12246179;19;20337;-84
2023/05/14 09:18:30;;;;;;;;;;;23.50;32.70;;;22.37;34.06;101427.53;12248622;19;20280;-87
2023/05/14 09:22:33;;;;;;;;;;;23.70;32.30;;;22.62;33.89;101436.69;12242862;19;19933;-86
2023/05/14 09:26:34;;;;;;;;;;;23.80;32.60;;;22.54;33.79;101381.53;12249789;19;20277;-86
2023/05/14 09:30:36;;;;;;;;;;;24.00;32.50;;;22.73;33.71;101386.75;12242587;19;19922;-86
2023/05/14 09:34:38;;;;;;;;;;;24.10;32.30;;;23.02;33.60;101408.94;12250009;19;19911;-86
2023/05/14 09:38:40;;;;;;;;;;;24.20;31.20;;;23.07;33.84;101398.66;12248685;19;19934;-86
2023/05/14 09:42:41;;;;;;;;;;;24.40;30.30;;;23.24;33.45;101410.34;12246546;19;20238;-84
2023/05/14 09:46:44;;;;;;;;;;;24.50;31.10;;;23.18;33.29;101395.78;12247899;19;20167;-85
2023/05/14 09:50:46;;;;;;;;;;;24.50;30.40;;;23.21;33.36;101384.81;12245290;19;20268;-86
2023/05/14 09:54:50;;;;;;;;;;;24.50;30.30;;;23.25;33.15;101396.88;12248438;19;19921;-85
2023/05/14 09:58:52;;;;;;;;;;;24.50;30.70;;;23.10;33.37;101363.72;12245833;19;19926;-87
2023/05/14 10:02:54;;;;;;;;;;;24.50;31.40;;;23.27;33.14;101392.22;12249852;19;19922;-86
2023/05/14 10:06:55;;;;;;;;;;;24.50;30.30;;;23.31;32.97;101390.94;12247319;19;19945;-86
2023/05/14 10:10:58;;;;;;;;;;;24.50;30.40;;;23.33;32.56;101388.97;12244532;19;19932;-86
2023/05/14 10:15:09;;;;;;;;;;;24.50;30.90;;;23.22;32.51;101367.84;12244869;19;20348;-86
2023/05/14 10:19:14;;;;;;;;;;;24.50;30.00;;;23.25;32.62;101378.22;12244619;19;19936;-86
2023/05/14 10:23:16;;;;;;;;;;;24.40;30.60;;;23.25;32.61;101367.56;12246262;19;19911;-87
2023/05/14 10:27:20;;;;;;;;;;;24.30;30.90;;;23.12;32.65;101324.47;12247160;19;19922;-87
2023/05/14 10:31:22;;;;;;;;;;;24.40;31.10;;;23.21;32.42;101326.19;12243086;19;19936;-87
2023/05/14 10:35:26;;;;;;;;;;;24.50;31.60;;;23.50;32.36;101357.94;12246068;19;19952;-87
2023/05/14 10:39:39;;;;;;;;;;;24.60;31.20;;;23.58;32.55;101360.69;12247601;19;20388;-86
2023/05/14 10:43:41;;;;;;;;;;;24.60;31.20;;;23.60;32.45;101364.03;12254293;19;19918;-85
2023/05/14 10:47:45;;;;;;;;;;;24.60;31.00;;;23.36;32.21;101326.50;12260355;19;19914;-86
2023/05/14 10:51:48;;;;;;;;;;;24.60;31.10;;;23.47;32.29;101349.44;12251522;19;19910;-86
2023/05/14 10:55:53;;;;;;;;;;;24.60;30.80;;;23.38;32.08;101343.16;12258704;19;19911;-87
2023/05/14 10:59:56;;;;;;;;;;;24.60;31.30;;;23.29;32.09;101334.25;12254929;19;19978;-87
2023/05/14 11:03:58;;;;;;;;;;;24.50;31.50;;;23.35;32.40;101344.31;12257146;19;20025;-86
2023/05/14 11:08:02;;;;;;;;;;;24.40;30.70;;;23.09;32.52;101301.63;12255465;19;19922;-86
2023/05/14 11:12:04;;;;;;;;;;;24.40;31.00;;;23.32;32.17;101339.28;12250574;19;20345;-87
2023/05/14 11:16:07;;;;;;;;;;;24.40;30.60;;;23.10;32.21;101302.44;12256075;19;19915;-86
2023/05/14 11:20:09;;;;;;;;;;;24.30;31.30;;;23.17;32.20;101322.19;12252353;19;19918;-86
2023/05/14 11:24:11;;;;;;;;;;;24.20;31.40;;;23.21;32.52;101326.19;12257593;19;19926;-86
2023/05/14 11:28:12;;;;;;;;;;;24.20;31.70;;;23.11;31.96;101314.78;12255103;19;19931;-86
2023/05/14 11:32:15;;;;;;;;;;;24.20;31.80;;;23.08;31.88;101309.75;12250895;19;19923;-86
2023/05/14 11:36:17;;;;;;;;;;;24.10;31.70;;;23.02;32.37;101294.38;12247281;19;19923;-88
2023/05/14 11:40:18;;;;;;;;;;;24.10;31.70;;;23.10;31.96;101297.13;12253723;19;20249;-89
2023/05/14 11:44:21;;;;;;;;;;;24.10;31.70;;;22.86;32.18;101258.56;12253020;19;19935;-88
2023/05/14 11:48:23;;;;;;;;;;;24.10;31.60;;;23.15;32.17;101294.84;12254941;19;19935;-85
2023/05/14 11:52:24;;;;;;;;;;;24.10;31.70;;;23.00;31.95;101259.88;12245545;19;19925;-86
2023/05/14 11:56:26;;;;;;;;;;;24.10;31.80;;;23.21;32.30;101280.06;12253928;19;19922;-87
2023/05/14 12:00:27;;;;;;;;;;;24.10;31.90;;;23.28;32.29;101273.97;12251085;19;19923;-85
2023/05/14 12:04:30;;;;;;;;;;;24.20;31.90;;;23.31;32.05;101273.66;12254604;19;19921;-86
2023/05/14 12:08:31;;;;;;;;;;;24.30;32.00;;;23.38;32.16;101264.03;12253497;19;19929;-88
2023/05/14 12:12:36;;;;;;;;;;;24.30;31.90;;;23.38;31.95;101258.69;12247610;19;19919;-87
2023/05/14 12:16:40;;;;;;;;;;;24.40;31.90;;;23.45;32.27;101264.25;12253151;19;19923;-87
2023/05/14 12:20:46;;;;;;;;;;;24.40;31.70;;;23.41;31.87;101246.88;12250990;19;19915;-87
2023/05/14 12:24:58;;;;;;;;;;;24.40;31.80;;;23.53;32.07;101256.31;12252766;19;19931;-87
2023/05/14 12:29:00;;;;;;;;;;;24.40;31.40;;;23.49;31.71;101251.44;12252693;19;19922;-87
2023/05/14 12:33:01;;;;;;;;;;;24.50;31.20;;;23.46;31.88;101251.75;12250475;19;20000;-87
2023/05/14 12:37:04;;;;;;;;;;;24.50;30.90;;;23.45;31.62;101261.59;12253193;19;19903;-88
2023/05/14 12:41:06;;;;;;;;;;;24.40;30.70;;;23.36;31.73;101252.72;12248533;19;19915;-87
2023/05/14 12:45:07;;;;;;;;;;;24.40;30.90;;;23.31;31.87;101251.50;12253220;19;20309;-88
2023/05/14 12:49:10;;;;;;;;;;;24.30;30.90;;;23.19;31.98;101232.25;12251413;19;19935;-89
2023/05/14 12:53:15;;;;;;;;;;;24.20;31.10;;;23.30;31.71;101239.97;12252241;19;19978;-88
2023/05/14 12:57:16;;;;;;;;;;;24.20;31.20;;;23.23;31.58;101219.47;12251117;19;19945;-88
2023/05/14 13:01:18;;;;;;;;;;;24.20;31.30;;;23.36;31.85;101226.06;12250193;19;19923;-88
2023/05/14 13:05:20;;;;;;;;;;;24.30;31.40;;;23.41;31.45;101225.56;12251605;19;19921;-88
2023/05/14 13:09:21;;;;;;;;;;;24.30;31.20;;;23.30;31.81;101217.81;12249479;19;19915;-88
2023/05/14 13:13:23;;;;;;;;;;;24.30;30.90;;;23.24;31.45;101207.78;12247212;19;19987;-88
2023/05/14 13:17:25;;;;;;;;;;;24.30;30.40;;;23.26;31.65;101205.81;12251006;19;19996;-87
2023/05/14 13:21:27;;;;;;;;;;;24.20;31.00;;;23.11;31.37;101170.88;12247727;19;19922;-88
2023/05/14 13:25:29;;;;;;;;;;;24.20;30.60;;;23.31;31.61;101209.69;12243599;19;19943;-88
2023/05/14 13:29:30;;;;;;;;;;;24.20;30.80;;;23.23;31.25;101193.66;12247019;19;19990;-88
2023/05/14 13:33:36;;;;;;;;;;;24.20;31.10;;;23.34;31.31;101208.53;12243056;19;19915;-88
2023/05/14 13:37:37;;;;;;;;;;;24.20;31.00;;;23.35;31.39;101197.72;12249230;19;20266;-88
2023/05/14 13:41:39;;;;;;;;;;;24.20;31.00;;;23.27;31.52;101181.66;12247151;19;19923;-88
2023/05/14 13:45:40;;;;;;;;;;;24.20;30.90;;;23.30;31.58;101183.19;12249254;19;19943;-87
2023/05/14 13:49:42;;;;;;;;;;;24.20;30.70;;;23.34;31.22;101184.56;12246977;19;19918;-89
2023/05/14 13:53:43;;;;;;;;;;;24.20;30.00;;;23.41;31.52;101188.25;12243793;19;19915;-88
2023/05/14 13:57:44;;;;;;;;;;;24.20;30.20;;;23.39;31.18;101169.75;12242843;19;19927;-88
2023/05/14 14:01:48;;;;;;;;;;;24.30;30.00;;;23.44;31.12;101155.09;12243182;19;19911;-88
2023/05/14 14:05:50;;;;;;;;;;;24.40;29.70;;;23.44;31.46;101131.97;12246644;19;19907;-88
2023/05/14 14:09:52;;;;;;;;;;;24.50;30.10;;;23.67;31.36;101145.56;12246716;19;19938;-88
2023/05/14 14:13:54;;;;;;;;;;;24.60;29.40;;;23.78;31.24;101157.81;12245170;19;19926;-88
2023/05/14 14:17:55;;;;;;;;;;;24.60;30.50;;;23.92;31.18;101154.53;12257772;19;19923;-88
2023/05/14 14:21:56;;;;;;;;;;;24.80;30.50;;;23.94;30.81;101143.72;12251551;19;19922;-88
2023/05/14 14:25:58;;;;;;;;;;;24.90;30.00;;;24.07;30.81;101157.41;12254882;19;19922;-88
2023/05/14 14:29:59;;;;;;;;;;;25.00;30.40;;;24.10;31.08;101146.41;12254089;19;20345;-87
2023/05/14 14:34:01;;;;;;;;;;;25.00;29.50;;;24.15;30.55;101143.28;12255810;19;19923;-87
2023/05/14 14:38:02;;;;;;;;;;;25.10;29.90;;;24.15;30.58;101146.78;12257295;19;19914;-88
2023/05/14 14:42:04;;;;;;;;;;;25.10;30.20;;;24.10;30.52;101140.25;12249094;19;19967;-88
2023/05/14 14:46:07;;;;;;;;;;;25.10;30.30;;;24.14;30.85;101145.09;12256317;19;19983;-87
2023/05/14 14:50:09;;;;;;;;;;;25.10;30.20;;;23.99;30.58;101122.72;12249043;19;19948;-88
2023/05/14 14:54:11;;;;;;;;;;;25.10;30.50;;;23.93;30.60;101124.19;12255162;19;19918;-87
2023/05/14 14:58:13;;;;;;;;;;;25.10;30.60;;;24.06;30.60;101137.06;12256687;19;20234;-88
2023/05/14 15:02:14;;;;;;;;;;;25.00;30.20;;;23.89;30.65;101127.34;12251424;19;19922;-87
2023/05/14 15:06:16;;;;;;;;;;;25.00;30.40;;;23.95;30.66;101137.34;12254704;19;19942;-87
2023/05/14 15:10:18;;;;;;;;;;;24.90;30.00;;;23.75;30.77;101110.97;12254237;19;19926;-87
2023/05/14 15:14:19;;;;;;;;;;;24.90;30.40;;;23.87;30.84;101132.00;12257601;19;19970;-88
2023/05/14 15:18:21;;;;;;;;;;;24.80;30.60;;;23.86;30.50;101128.50;12256667;19;20316;-88
2023/05/14 15:22:23;;;;;;;;;;;24.80;30.60;;;23.80;30.61;101121.16;12254013;19;19919;-87
2023/05/14 15:26:25;;;;;;;;;;;24.70;30.70;;;23.84;30.84;101120.69;12254270;19;19931;-88
2023/05/14 15:30:27;;;;;;;;;;;24.70;30.60;;;23.49;30.44;101062.16;12252598;19;19918;-87
2023/05/14 15:34:28;;;;;;;;;;;24.70;30.60;;;23.72;30.56;101103.28;12256273;19;19928;-87
2023/05/14 15:38:30;;;;;;;;;;;24.70;30.80;;;23.79;30.66;101103.47;12255925;19;19947;-87
2023/05/14 15:42:31;;;;;;;;;;;24.70;30.80;;;23.77;30.66;101097.47;12251952;19;20568;-87
2023/05/14 15:46:32;;;;;;;;;;;24.60;30.80;;;23.71;30.42;101082.06;12255400;19;19911;-88
2023/05/14 15:50:34;;;;;;;;;;;24.60;30.60;;;23.77;30.74;101090.31;12246545;19;20121;-87
2023/05/14 15:54:35;;;;;;;;;;;24.60;30.60;;;23.71;30.44;101082.97;12251676;19;20246;-88
2023/05/14 15:58:37;;;;;;;;;;;24.60;30.90;;;23.75;30.57;101078.97;12251190;19;19925;-87
2023/05/14 16:02:38;;;;;;;;;;;24.60;30.30;;;23.72;30.35;101073.94;12249421;19;19934;-88
2023/05/14 16:06:41;;;;;;;;;;;24.70;30.70;;;23.46;30.69;101023.34;12250791;19;20349;-87
2023/05/14 16:10:42;;;;;;;;;;;24.70;30.70;;;23.60;30.72;101045.88;12250172;19;19926;-88
2023/05/14 16:14:44;;;;;;;;;;;24.60;30.60;;;23.75;30.32;101072.78;12253959;19;20257;-87
2023/05/14 16:18:45;;;;;;;;;;;24.60;30.60;;;23.71;30.54;101063.41;12251607;19;19911;-87
2023/05/14 16:22:47;;;;;;;;;;;24.60;30.00;;;23.75;30.58;101075.47;12246170;19;19934;-88
2023/05/14 16:26:48;;;;;;;;;;;24.60;29.80;;;23.64;30.27;101069.38;12251748;19;19922;-88
2023/05/14 16:30:50;;;;;;;;;;;24.60;30.60;;;23.67;30.31;101076.22;12247129;19;19975;-86
2023/05/14 16:34:52;;;;;;;;;;;24.50;30.60;;;23.59;30.40;101062.88;12252382;19;19926;-85
2023/05/14 16:38:54;;;;;;;;;;;24.50;30.60;;;23.50;30.29;101059.34;12248708;19;19950;-86
2023/05/14 16:42:55;;;;;;;;;;;24.50;30.60;;;23.55;30.19;101067.69;12250466;19;19919;-87
2023/05/14 16:46:57;;;;;;;;;;;24.40;30.60;;;23.48;30.65;101065.84;12247158;19;19938;-87
2023/05/14 16:50:59;;;;;;;;;;;24.40;30.70;;;23.50;30.65;101070.00;12245246;19;19922;-87
2023/05/14 16:55:00;;;;;;;;;;;24.30;30.70;;;23.48;30.49;101066.66;12248284;19;19936;-88
2023/05/14 16:59:02;;;;;;;;;;;24.20;30.60;;;23.38;30.41;101057.97;12245714;19;19926;-87
2023/05/14 17:03:03;;;;;;;;;;;24.20;30.60;;;23.36;30.67;101059.97;12246700;19;19918;-86
2023/05/14 17:07:05;;;;;;;;;;;24.20;30.80;;;23.34;30.13;101054.78;12249046;19;19915;-87
2023/05/14 17:11:06;;;;;;;;;;;24.20;30.90;;;23.29;30.56;101046.44;12247975;19;19927;-87
2023/05/14 17:15:08;;;;;;;;;;;24.20;30.90;;;23.15;30.31;101020.41;12250583;19;19927;-87
2023/05/14 17:19:10;;;;;;;;;;;24.20;31.00;;;23.23;30.59;101039.09;12248924;19;20060;-86
2023/05/14 17:23:12;;;;;;;;;;;24.10;31.00;;;23.12;30.70;101028.72;12249747;19;19915;-87
2023/05/14 17:27:14;;;;;;;;;;;24.10;31.10;;;23.24;30.23;101048.72;12250663;19;19935;-84
2023/05/14 17:31:15;;;;;;;;;;;24.10;31.10;;;23.14;30.29;101053.34;12245737;19;19947;-83
2023/05/14 17:35:17;;;;;;;;;;;24.00;31.10;;;23.10;30.59;101052.84;12247178;19;20102;-83
2023/05/14 17:39:18;;;;;;;;;;;23.90;31.20;;;23.05;30.52;101051.63;12247194;19;19911;-83
2023/05/14 17:43:20;;;;;;;;;;;23.90;31.30;;;22.98;30.61;101054.13;12249255;19;19919;-84
2023/05/14 17:47:22;;;;;;;;;;;23.80;31.30;;;22.75;30.50;101032.44;12246893;19;20392;-83
2023/05/14 17:51:24;;;;;;;;;;;23.70;31.30;;;22.75;30.27;101043.94;12244438;19;19911;-83
2023/05/14 17:55:25;;;;;;;;;;;23.70;31.50;;;22.64;30.79;101040.69;12247693;19;19940;-83
2023/05/14 17:59:27;;;;;;;;;;;23.60;31.50;;;22.67;30.65;101051.03;12244711;19;19923;-83
2023/05/14 18:03:29;;;;;;;;;;;23.50;31.60;;;22.50;30.46;101039.44;12242431;19;19939;-84
2023/05/14 18:07:30;;;;;;;;;;;23.40;31.60;;;22.49;30.74;101057.25;12246823;19;19929;-83